Seven Seas Voyager — C6SW3 — position and weather

sailwx.info

Track history (hours):
 
Tides and Currents Weather Stations Pressure Air Temp Water Temp Dewpoint Dewpoint Depression Visibility Wind Speed Wind Dir Waves Ship Positions

Seven Seas Voyager

Last reported at 2017-Aug-23 06:40 UTC. Time now 2017-Aug-23 13:53 UTC.
Position N 37°60' W 000°22'.

Length 205 m; draft 7 m.

Type: Ship. MMSI: 31151000.

Date/timePositionNaut miles runAvg speedWind from/ knotsBaromVisibWave heightAir tempDewpointWater temp
2017-Aug-23 06:40N 37°60' W 000°22'416.0
2017-Aug-23 06:25N 37°56' W 000°23'1316.0
2017-Aug-23 05:36N 37°43' W 000°25'216.0
2017-Aug-23 05:29N 37°41' W 000°26'816.6
2017-Aug-23 05:00N 37°34' W 000°30'817.0
2017-Aug-23 04:30N 37°28' W 000°37'916.8
2017-Aug-23 04:00N 37°22' W 000°46'51218.0
2017-Aug-23 04:00N 37°18' W 000°42'918.9 050 / 101016.010.8 23.121.723.1
2017-Aug-23 03:30N 37°17' W 000°53'816.4
2017-Aug-23 03:00N 37°11' W 001°01'1016.3
2017-Aug-23 02:22N 37°04' W 001°11'616.2
2017-Aug-23 02:00N 37°00' W 001°16'816.6
2017-Aug-23 01:30N 36°55' W 001°24'816.6
2017-Aug-23 01:00N 36°50' W 001°32'1316.7
2017-Aug-23 00:13N 36°41' W 001°44'417.1
2017-Aug-23 00:00N 36°38' W 001°48'142 6.7
2017-Aug-22 03:00N 36°18' W 004°42'3030.2 080 / 201014.010.8 22.119.122.1
2017-Aug-22 02:00N 36°00' W 005°12'1249.6 080 / 201014.010.8 22.119.122.1
2017-Aug-22 01:45N 36°09' W 005°03'416.1
2017-Aug-22 01:30N 36°06' W 005°06'816.1
2017-Aug-22 01:00N 36°02' W 005°14'917.2
2017-Aug-22 00:30N 35°59' W 005°24'1017.4
2017-Aug-21 23:57N 35°56' W 005°36'1115.1
2017-Aug-21 23:14N 35°56' W 005°49'1515.8
2017-Aug-21 22:16N 36°01' W 006°07'415.9
2017-Aug-21 22:00N 36°02' W 006°12'813.3
2017-Aug-21 21:25N 36°04' W 006°21'614.7
2017-Aug-21 20:59N 36°10' W 006°25'816.0
2017-Aug-21 20:29N 36°17' W 006°27'816.0
2017-Aug-21 20:00N 36°25' W 006°28'57 3.4
2017-Aug-21 03:04N 36°31' W 007°39'518.1
2017-Aug-21 02:46N 36°31' W 007°45'718.7
2017-Aug-21 02:22N 36°31' W 007°55'9015.1
2017-Aug-20 20:26N 37°13' W 009°34'818.9
2017-Aug-20 20:00N 37°21' W 009°33'1119.0
2017-Aug-20 19:24N 37°33' W 009°31'719.0
2017-Aug-20 19:00N 37°40' W 009°30'1019.4
2017-Aug-20 18:30N 37°50' W 009°29'1020.2
2017-Aug-20 18:00N 37°60' W 009°28'1019.9
2017-Aug-20 17:30N 38°10' W 009°27'918.7
2017-Aug-20 17:00N 38°19' W 009°25'918.6
2017-Aug-20 16:30N 38°28' W 009°24'918.1
2017-Aug-20 16:00N 38°37' W 009°22'815.2
2017-Aug-20 15:30N 38°41' W 009°14'5 6.0
2017-Aug-20 14:38N 38°43' W 009°07'0 0.0
2017-Aug-20 14:08N 38°43' W 009°07'0 0.0
2017-Aug-20 06:44N 38°43' W 009°07'0 0.0
2017-Aug-20 06:08N 38°43' W 009°07'0 0.0
2017-Aug-20 05:56N 38°43' W 009°07'0 0.0
2017-Aug-20 05:20N 38°43' W 009°07'0 0.0
2017-Aug-20 04:56N 38°43' W 009°07'0 0.0
2017-Aug-20 04:08N 38°43' W 009°07'0 0.0
2017-Aug-20 03:50N 38°43' W 009°07'0 0.0
2017-Aug-20 03:08N 38°43' W 009°07'0 0.0
2017-Aug-20 02:38N 38°43' W 009°07'0 0.0
2017-Aug-20 01:26N 38°43' W 009°07'0 0.0
2017-Aug-20 00:56N 38°43' W 009°07'0 0.0
2017-Aug-20 00:26N 38°43' W 009°07'0 0.0
2017-Aug-19 22:38N 38°43' W 009°07'0 0.0
2017-Aug-19 22:20N 38°43' W 009°07'0 0.0
2017-Aug-19 19:38N 38°43' W 009°07'0 0.0
2017-Aug-19 16:56N 38°43' W 009°07'0 0.0
2017-Aug-19 15:50N 38°43' W 009°07'0 0.0
2017-Aug-19 15:26N 38°43' W 009°07'0 0.0
2017-Aug-19 14:50N 38°43' W 009°07'0 0.0
2017-Aug-19 13:20N 38°43' W 009°07'0 0.0
2017-Aug-19 12:56N 38°43' W 009°07'0 0.0
2017-Aug-19 12:20N 38°43' W 009°07'0 0.0
2017-Aug-19 11:53N 38°43' W 009°07'0 0.9
2017-Aug-19 11:30N 38°43' W 009°07'4 8.9
2017-Aug-19 11:00N 38°41' W 009°12'510.5
2017-Aug-19 10:30N 38°40' W 009°19'714.3
2017-Aug-19 10:00N 38°34' W 009°23'815.8
2017-Aug-19 09:30N 38°26' W 009°23'815.4
2017-Aug-19 09:00N 38°18' W 009°23'714.9
2017-Aug-19 08:30N 38°11' W 009°23'714.7
2017-Aug-19 08:00N 38°03' W 009°22'714.2
2017-Aug-19 07:30N 37°56' W 009°22'714.6
2017-Aug-19 07:00N 37°49' W 009°23'714.9
2017-Aug-19 06:30N 37°41' W 009°22'815.2
2017-Aug-19 06:00N 37°34' W 009°22'815.5
2017-Aug-19 05:30N 37°26' W 009°22'815.6
2017-Aug-19 05:00N 37°18' W 009°22'815.3
2017-Aug-19 04:30N 37°11' W 009°22'815.4
2017-Aug-19 04:00N 37°03' W 009°21'915.3
2017-Aug-19 03:26N 36°54' W 009°20'614.8
2017-Aug-19 03:00N 36°49' W 009°16'814.9
2017-Aug-19 02:29N 36°44' W 009°08'815.7
2017-Aug-19 02:00N 36°42' W 008°59'815.7
2017-Aug-19 01:30N 36°40' W 008°50'815.9
2017-Aug-19 01:00N 36°37' W 008°40'816.2
2017-Aug-19 00:30N 36°35' W 008°31'816.1
2017-Aug-19 00:00N 36°32' W 008°21'816.3
2017-Aug-18 23:30N 36°30' W 008°12'816.1
2017-Aug-18 23:00N 36°27' W 008°02'816.2
2017-Aug-18 22:30N 36°24' W 007°52'816.1
2017-Aug-18 22:00N 36°22' W 007°43'816.1
2017-Aug-18 21:30N 36°19' W 007°34'7616.4
2017-Aug-18 16:51N 35°57' W 006°03'1216.4
2017-Aug-18 16:07N 35°51' W 005°50'29 1.0
2017-Aug-17 11:56N 36°09' W 005°22'0 0.0
2017-Aug-17 11:20N 36°09' W 005°22'0 0.0
2017-Aug-17 10:56N 36°09' W 005°22'0 0.0
2017-Aug-17 10:26N 36°09' W 005°22'0 0.0
2017-Aug-17 09:56N 36°09' W 005°22'0 0.0
2017-Aug-17 09:26N 36°09' W 005°22'0 0.0
2017-Aug-17 08:50N 36°09' W 005°22'0 0.0
2017-Aug-17 08:08N 36°09' W 005°22'0 0.0
2017-Aug-17 07:56N 36°09' W 005°22'0 0.0
2017-Aug-17 07:26N 36°09' W 005°22'0 0.0
2017-Aug-17 05:50N 36°09' W 005°22'0 0.0
2017-Aug-17 05:30N 36°09' W 005°22'2 4.7
2017-Aug-17 05:00N 36°07' W 005°23'4 8.1
2017-Aug-17 04:30N 36°06' W 005°18'173 5.1
2017-Aug-15 18:35N 36°47' W 001°49'1016.6
2017-Aug-15 17:57N 36°55' W 001°41'816.5
2017-Aug-15 17:29N 37°01' W 001°35'1016.5
2017-Aug-15 16:52N 37°09' W 001°26'35 3.1
2017-Aug-15 05:36N 37°36' W 000°59'0 2.2
2017-Aug-15 05:30N 37°35' W 000°59'3 6.2
2017-Aug-15 04:59N 37°32' W 000°58'5 9.4
2017-Aug-15 04:30N 37°31' W 000°53'815.3
2017-Aug-15 04:00N 37°31' W 000°43'815.5
2017-Aug-15 03:30N 37°34' W 000°34'816.2
2017-Aug-15 03:00N 37°40' W 000°28'816.4
2017-Aug-15 02:30N 37°47' W 000°22'612.8
2017-Aug-15 02:00N 37°53' W 000°18'612.4
2017-Aug-15 01:30N 37°58' W 000°14'612.5
2017-Aug-15 01:00N 38°03' W 000°09'2312.4
2017-Aug-14 23:10N 38°22' E 000°07'412.2
2017-Aug-14 22:51N 38°25' E 000°09'711.9
2017-Aug-14 22:17N 38°31' E 000°14'811.8
2017-Aug-14 21:39N 38°37' E 000°19'511.7
2017-Aug-14 21:15N 38°42' E 000°22'311.7
2017-Aug-14 21:00N 38°42' E 000°18'1312.9 040 / 131018.0 23.020.1
2017-Aug-14 20:00N 38°54' E 000°12'8 7.6 040 / 131018.0 23.020.1
2017-Aug-14 19:00N 39°00' E 000°06'54 2.9 040 / 131018.0 20.015.3
2017-Aug-14 00:37N 39°25' E 001°08'215.6
2017-Aug-14 00:29N 39°25' E 001°11'815.6
2017-Aug-14 00:00N 39°25' E 001°21'815.5
2017-Aug-13 23:30N 39°25' E 001°31'815.8
2017-Aug-13 23:00N 39°25' E 001°41'815.3
2017-Aug-13 22:30N 39°25' E 001°51'815.4
2017-Aug-13 22:00N 39°25' E 002°01'815.7
2017-Aug-13 21:30N 39°25' E 002°11'815.7
2017-Aug-13 21:00N 39°25' E 002°21'816.2
2017-Aug-13 20:30N 39°24' E 002°31'815.3
2017-Aug-13 20:00N 39°30' E 002°37'3 6.3
2017-Aug-13 19:30N 39°33' E 002°38'0 0.0
2017-Aug-13 19:00N 39°33' E 002°38'0 0.0
2017-Aug-13 18:30N 39°33' E 002°38'0 0.0
2017-Aug-13 18:00N 39°33' E 002°38'0 0.0
2017-Aug-13 17:30N 39°33' E 002°38'0 0.0
2017-Aug-13 17:00N 39°33' E 002°38'0 0.0
2017-Aug-13 16:30N 39°33' E 002°38'0 0.0
2017-Aug-13 16:00N 39°33' E 002°38'0 0.0
2017-Aug-13 15:30N 39°33' E 002°38'0 0.0
2017-Aug-13 15:00N 39°33' E 002°38'0 0.0
2017-Aug-13 14:30N 39°33' E 002°38'0 0.0
2017-Aug-13 14:00N 39°33' E 002°38'0 0.0
2017-Aug-13 13:30N 39°33' E 002°38'0 0.0
2017-Aug-13 13:00N 39°33' E 002°38'0 0.0
2017-Aug-13 12:30N 39°33' E 002°38'0 0.0
2017-Aug-13 11:36N 39°33' E 002°38'0 0.0
2017-Aug-13 11:30N 39°33' E 002°38'0 0.0
2017-Aug-13 11:00N 39°33' E 002°38'0 0.0
2017-Aug-13 10:30N 39°33' E 002°38'1 2.9
2017-Aug-13 10:00N 39°32' E 002°39'713.3
2017-Aug-13 09:30N 39°26' E 002°34'713.6
2017-Aug-13 09:00N 39°26' E 002°25'814.8
2017-Aug-13 08:29N 39°30' E 002°17'612.6
2017-Aug-13 07:59N 39°36' E 002°15'714.6
2017-Aug-13 07:30N 39°43' E 002°20'  
Track history (hours):
 
Tides and Currents Weather Stations Pressure Air Temp Water Temp Dewpoint Dewpoint Depression Visibility Wind Speed Wind Dir Waves Ship Positions

Seven Seas Voyager

Last reported at 2017-Aug-23 06:40 UTC. Time now 2017-Aug-23 13:53 UTC.
Position N 37°60' W 000°22'.

Length 205 m; draft 7 m.

Type: Ship. MMSI: 31151000.

Date/timePositionNaut miles runAvg speedWind from/ knotsBaromVisibWave heightAir tempDewpointWater temp
2017-Aug-23 06:40N 37°60' W 000°22'416.0
2017-Aug-23 06:25N 37°56' W 000°23'1316.0
2017-Aug-23 05:36N 37°43' W 000°25'216.0
2017-Aug-23 05:29N 37°41' W 000°26'816.6
2017-Aug-23 05:00N 37°34' W 000°30'817.0
2017-Aug-23 04:30N 37°28' W 000°37'916.8
2017-Aug-23 04:00N 37°22' W 000°46'51218.0
2017-Aug-23 04:00N 37°18' W 000°42'918.9 050 / 101016.010.8 23.121.723.1
2017-Aug-23 03:30N 37°17' W 000°53'816.4
2017-Aug-23 03:00N 37°11' W 001°01'1016.3
2017-Aug-23 02:22N 37°04' W 001°11'616.2
2017-Aug-23 02:00N 37°00' W 001°16'816.6
2017-Aug-23 01:30N 36°55' W 001°24'816.6
2017-Aug-23 01:00N 36°50' W 001°32'1316.7
2017-Aug-23 00:13N 36°41' W 001°44'417.1
2017-Aug-23 00:00N 36°38' W 001°48'142 6.7
2017-Aug-22 03:00N 36°18' W 004°42'3030.2 080 / 201014.010.8 22.119.122.1
2017-Aug-22 02:00N 36°00' W 005°12'1249.6 080 / 201014.010.8 22.119.122.1
2017-Aug-22 01:45N 36°09' W 005°03'416.1
2017-Aug-22 01:30N 36°06' W 005°06'816.1
2017-Aug-22 01:00N 36°02' W 005°14'917.2
2017-Aug-22 00:30N 35°59' W 005°24'1017.4
2017-Aug-21 23:57N 35°56' W 005°36'1115.1
2017-Aug-21 23:14N 35°56' W 005°49'1515.8
2017-Aug-21 22:16N 36°01' W 006°07'415.9
2017-Aug-21 22:00N 36°02' W 006°12'813.3
2017-Aug-21 21:25N 36°04' W 006°21'614.7
2017-Aug-21 20:59N 36°10' W 006°25'816.0
2017-Aug-21 20:29N 36°17' W 006°27'816.0
2017-Aug-21 20:00N 36°25' W 006°28'57 3.4
2017-Aug-21 03:04N 36°31' W 007°39'518.1
2017-Aug-21 02:46N 36°31' W 007°45'718.7
2017-Aug-21 02:22N 36°31' W 007°55'9015.1
2017-Aug-20 20:26N 37°13' W 009°34'818.9
2017-Aug-20 20:00N 37°21' W 009°33'1119.0
2017-Aug-20 19:24N 37°33' W 009°31'719.0
2017-Aug-20 19:00N 37°40' W 009°30'1019.4
2017-Aug-20 18:30N 37°50' W 009°29'1020.2
2017-Aug-20 18:00N 37°60' W 009°28'1019.9
2017-Aug-20 17:30N 38°10' W 009°27'918.7
2017-Aug-20 17:00N 38°19' W 009°25'918.6
2017-Aug-20 16:30N 38°28' W 009°24'918.1
2017-Aug-20 16:00N 38°37' W 009°22'815.2
2017-Aug-20 15:30N 38°41' W 009°14'5 6.0
2017-Aug-20 14:38N 38°43' W 009°07'0 0.0
2017-Aug-20 14:08N 38°43' W 009°07'0 0.0
2017-Aug-20 06:44N 38°43' W 009°07'0 0.0
2017-Aug-20 06:08N 38°43' W 009°07'0 0.0
2017-Aug-20 05:56N 38°43' W 009°07'0 0.0
2017-Aug-20 05:20N 38°43' W 009°07'0 0.0
2017-Aug-20 04:56N 38°43' W 009°07'0 0.0
2017-Aug-20 04:08N 38°43' W 009°07'0 0.0
2017-Aug-20 03:50N 38°43' W 009°07'0 0.0
2017-Aug-20 03:08N 38°43' W 009°07'0 0.0
2017-Aug-20 02:38N 38°43' W 009°07'0 0.0
2017-Aug-20 01:26N 38°43' W 009°07'0 0.0
2017-Aug-20 00:56N 38°43' W 009°07'0 0.0
2017-Aug-20 00:26N 38°43' W 009°07'0 0.0
2017-Aug-19 22:38N 38°43' W 009°07'0 0.0
2017-Aug-19 22:20N 38°43' W 009°07'0 0.0
2017-Aug-19 19:38N 38°43' W 009°07'0 0.0
2017-Aug-19 16:56N 38°43' W 009°07'0 0.0
2017-Aug-19 15:50N 38°43' W 009°07'0 0.0
2017-Aug-19 15:26N 38°43' W 009°07'0 0.0
2017-Aug-19 14:50N 38°43' W 009°07'0 0.0
2017-Aug-19 13:20N 38°43' W 009°07'0 0.0
2017-Aug-19 12:56N 38°43' W 009°07'0 0.0
2017-Aug-19 12:20N 38°43' W 009°07'0 0.0
2017-Aug-19 11:53N 38°43' W 009°07'0 0.9
2017-Aug-19 11:30N 38°43' W 009°07'4 8.9
2017-Aug-19 11:00N 38°41' W 009°12'510.5
2017-Aug-19 10:30N 38°40' W 009°19'714.3
2017-Aug-19 10:00N 38°34' W 009°23'815.8
2017-Aug-19 09:30N 38°26' W 009°23'815.4
2017-Aug-19 09:00N 38°18' W 009°23'714.9
2017-Aug-19 08:30N 38°11' W 009°23'714.7
2017-Aug-19 08:00N 38°03' W 009°22'714.2
2017-Aug-19 07:30N 37°56' W 009°22'714.6
2017-Aug-19 07:00N 37°49' W 009°23'714.9
2017-Aug-19 06:30N 37°41' W 009°22'815.2
2017-Aug-19 06:00N 37°34' W 009°22'815.5
2017-Aug-19 05:30N 37°26' W 009°22'815.6
2017-Aug-19 05:00N 37°18' W 009°22'815.3
2017-Aug-19 04:30N 37°11' W 009°22'815.4
2017-Aug-19 04:00N 37°03' W 009°21'915.3
2017-Aug-19 03:26N 36°54' W 009°20'614.8
2017-Aug-19 03:00N 36°49' W 009°16'814.9
2017-Aug-19 02:29N 36°44' W 009°08'815.7
2017-Aug-19 02:00N 36°42' W 008°59'815.7
2017-Aug-19 01:30N 36°40' W 008°50'815.9
2017-Aug-19 01:00N 36°37' W 008°40'816.2
2017-Aug-19 00:30N 36°35' W 008°31'816.1
2017-Aug-19 00:00N 36°32' W 008°21'816.3
2017-Aug-18 23:30N 36°30' W 008°12'816.1
2017-Aug-18 23:00N 36°27' W 008°02'816.2
2017-Aug-18 22:30N 36°24' W 007°52'816.1
2017-Aug-18 22:00N 36°22' W 007°43'816.1
2017-Aug-18 21:30N 36°19' W 007°34'7616.4
2017-Aug-18 16:51N 35°57' W 006°03'1216.4
2017-Aug-18 16:07N 35°51' W 005°50'29 1.0
2017-Aug-17 11:56N 36°09' W 005°22'0 0.0
2017-Aug-17 11:20N 36°09' W 005°22'0 0.0
2017-Aug-17 10:56N 36°09' W 005°22'0 0.0
2017-Aug-17 10:26N 36°09' W 005°22'0 0.0
2017-Aug-17 09:56N 36°09' W 005°22'0 0.0
2017-Aug-17 09:26N 36°09' W 005°22'0 0.0
2017-Aug-17 08:50N 36°09' W 005°22'0 0.0
2017-Aug-17 08:08N 36°09' W 005°22'0 0.0
2017-Aug-17 07:56N 36°09' W 005°22'0 0.0
2017-Aug-17 07:26N 36°09' W 005°22'0 0.0
2017-Aug-17 05:50N 36°09' W 005°22'0 0.0
2017-Aug-17 05:30N 36°09' W 005°22'2 4.7
2017-Aug-17 05:00N 36°07' W 005°23'4 8.1
2017-Aug-17 04:30N 36°06' W 005°18'173 5.1
2017-Aug-15 18:35N 36°47' W 001°49'1016.6
2017-Aug-15 17:57N 36°55' W 001°41'816.5
2017-Aug-15 17:29N 37°01' W 001°35'1016.5
2017-Aug-15 16:52N 37°09' W 001°26'35 3.1
2017-Aug-15 05:36N 37°36' W 000°59'0 2.2
2017-Aug-15 05:30N 37°35' W 000°59'3 6.2
2017-Aug-15 04:59N 37°32' W 000°58'5 9.4
2017-Aug-15 04:30N 37°31' W 000°53'815.3
2017-Aug-15 04:00N 37°31' W 000°43'815.5
2017-Aug-15 03:30N 37°34' W 000°34'816.2
2017-Aug-15 03:00N 37°40' W 000°28'816.4
2017-Aug-15 02:30N 37°47' W 000°22'612.8
2017-Aug-15 02:00N 37°53' W 000°18'612.4
2017-Aug-15 01:30N 37°58' W 000°14'612.5
2017-Aug-15 01:00N 38°03' W 000°09'2312.4
2017-Aug-14 23:10N 38°22' E 000°07'412.2
2017-Aug-14 22:51N 38°25' E 000°09'711.9
2017-Aug-14 22:17N 38°31' E 000°14'811.8
2017-Aug-14 21:39N 38°37' E 000°19'511.7
2017-Aug-14 21:15N 38°42' E 000°22'311.7
2017-Aug-14 21:00N 38°42' E 000°18'1312.9 040 / 131018.0 23.020.1
2017-Aug-14 20:00N 38°54' E 000°12'8 7.6 040 / 131018.0 23.020.1
2017-Aug-14 19:00N 39°00' E 000°06'54 2.9 040 / 131018.0 20.015.3
2017-Aug-14 00:37N 39°25' E 001°08'215.6
2017-Aug-14 00:29N 39°25' E 001°11'815.6
2017-Aug-14 00:00N 39°25' E 001°21'815.5
2017-Aug-13 23:30N 39°25' E 001°31'815.8
2017-Aug-13 23:00N 39°25' E 001°41'815.3
2017-Aug-13 22:30N 39°25' E 001°51'815.4
2017-Aug-13 22:00N 39°25' E 002°01'815.7
2017-Aug-13 21:30N 39°25' E 002°11'815.7
2017-Aug-13 21:00N 39°25' E 002°21'816.2
2017-Aug-13 20:30N 39°24' E 002°31'815.3
2017-Aug-13 20:00N 39°30' E 002°37'3 6.3
2017-Aug-13 19:30N 39°33' E 002°38'0 0.0
2017-Aug-13 19:00N 39°33' E 002°38'0 0.0
2017-Aug-13 18:30N 39°33' E 002°38'0 0.0
2017-Aug-13 18:00N 39°33' E 002°38'0 0.0
2017-Aug-13 17:30N 39°33' E 002°38'0 0.0
2017-Aug-13 17:00N 39°33' E 002°38'0 0.0
2017-Aug-13 16:30N 39°33' E 002°38'0 0.0
2017-Aug-13 16:00N 39°33' E 002°38'0 0.0
2017-Aug-13 15:30N 39°33' E 002°38'0 0.0
2017-Aug-13 15:00N 39°33' E 002°38'0 0.0
2017-Aug-13 14:30N 39°33' E 002°38'0 0.0
2017-Aug-13 14:00N 39°33' E 002°38'0 0.0
2017-Aug-13 13:30N 39°33' E 002°38'0 0.0
2017-Aug-13 13:00N 39°33' E 002°38'0 0.0
2017-Aug-13 12:30N 39°33' E 002°38'0 0.0
2017-Aug-13 11:36N 39°33' E 002°38'0 0.0
2017-Aug-13 11:30N 39°33' E 002°38'0 0.0
2017-Aug-13 11:00N 39°33' E 002°38'0 0.0
2017-Aug-13 10:30N 39°33' E 002°38'1 2.9
2017-Aug-13 10:00N 39°32' E 002°39'713.3
2017-Aug-13 09:30N 39°26' E 002°34'713.6
2017-Aug-13 09:00N 39°26' E 002°25'814.8
2017-Aug-13 08:29N 39°30' E 002°17'612.6
2017-Aug-13 07:59N 39°36' E 002°15'714.6
2017-Aug-13 07:30N 39°43' E 002°20'  

Dump ship's entire track history